Tianjin, Tianjin

4:02 AM CST on July 08, 2015 (GMT +0800)
Binhai | | Change Station
CLOSE
Current Station
Airport
Location: Tianjin,
Elevation: 10 ft
Nearby Weather Stations

Elev 10 ft 39.12 °N, 117.35 °E | Updated 32 minutes ago

Mist
Mist
68 °F
Feels Like 68 °F
N
2
Wind Variable Wind from SE

Today
High -- | Low -- °F
--% Chance of Precip.
Yesterday
High -- | Low -- °F
Precip. -- in
4:51 AM 7:39 PM
Waning Gibbous, 62% visible
Pressure 29.80 in
Visibility 1.6 miles
Clouds
Dew Point 64 °F
Humidity 88%
Rainfall 0.00 in
Snow Depth Not available.
UV Not available.
Pollen Not available.
Air Quality Not available.
Flu Activity Not available.
METAR ZBTJ 071930Z 13001MPS 2500 BR NSC 20/18 Q1009 NOSIG

More Conditions Fewer Conditions

Pressure 29.80 in
Visibility 1.6 miles
Clouds
Dew Point 64 °F
Humidity 88%
Rainfall 0.00 in
Snow Depth Not available.
UV Not available.
Pollen Not available.
Air Quality Not available.
Flu Activity Not available.
METAR ZBTJ 071930Z 13001MPS 2500 BR NSC 20/18 Q1009 NOSIG

More Conditions Fewer Conditions

10-Day Weather Forecast

×

Almanac

Astronomy

Jul. 08, 2015 Rise Set
Actual Time
Civil Twilight
Nautical Twilight
Astronomical Twilight
Moon
Length of Visible Light
Length of Day
Tomorrow will be .
, % of the Moon is Illuminated

Today's Extremes

Country Highs Country Lows

Community

WunderPhotos

Upload Photos

1,835,884 photos uploaded!

WunderBlogs® & News

Nearby

Air Quality

  Air Quality AQ Index Pollutant
Not available.

Snow Depth

Station Depth Elevation

Earthquake Activity

City Distance Mag. Time & Date
Minimum magnitude displayed is 2.5.

Coastal Water Temperatures

Place Temperature

Stations

Nearby Weather Stations

Station Location Temp. Windchill Dew Point Humidity Wind Precip. Elev Updated Type